createdAt,value
2022-11-26T00:02:23.551Z,0.50
2022-11-26T00:04:50.244Z,0.77
2022-11-26T00:07:18.473Z,2.03
2022-11-26T00:09:44.985Z,0.88
2022-11-26T00:12:15.808Z,0.60
2022-11-26T00:14:42.107Z,0.40
2022-11-26T00:17:11.455Z,0.40
2022-11-26T00:19:37.814Z,0.45
2022-11-26T00:22:04.265Z,0.32
2022-11-26T00:24:30.824Z,0.38
2022-11-26T00:26:58.695Z,0.40
2022-11-26T00:29:25.076Z,0.30
2022-11-26T00:31:51.613Z,0.25
2022-11-26T00:34:18.002Z,0.20
2022-11-26T00:36:44.559Z,0.30
2022-11-26T00:39:16.505Z,0.30
2022-11-26T00:41:45.126Z,0.30
2022-11-26T00:44:19.663Z,0.40
2022-11-26T00:46:46.440Z,0.50
2022-11-26T00:49:13.140Z,0.50
2022-11-26T00:51:39.920Z,0.52
2022-11-26T00:54:06.743Z,0.55
2022-11-26T00:56:37.750Z,0.52
2022-11-26T00:59:04.527Z,0.60
2022-11-26T01:01:32.830Z,0.60
2022-11-26T01:03:59.478Z,0.80
2022-11-26T01:06:34.063Z,0.77
2022-11-26T01:09:00.468Z,0.60
2022-11-26T01:11:26.811Z,0.52
2022-11-26T01:13:54.599Z,0.80
2022-11-26T01:16:25.323Z,0.60
2022-11-26T01:18:52.693Z,0.70
2022-11-26T01:21:19.232Z,0.70
2022-11-26T01:23:46.072Z,0.60
2022-11-26T01:26:20.576Z,0.63
2022-11-26T01:28:47.503Z,0.90
2022-11-26T01:31:15.133Z,0.77
2022-11-26T01:33:41.603Z,0.50
2022-11-26T01:36:16.907Z,0.80
2022-11-26T01:38:43.299Z,1.02
2022-11-26T01:41:15.656Z,1.10
2022-11-26T01:43:42.833Z,1.30
2022-11-26T01:46:13.625Z,1.27
2022-11-26T01:48:39.996Z,1.38
2022-11-26T01:51:07.105Z,1.10
2022-11-26T01:53:38.135Z,0.82
2022-11-26T01:56:13.626Z,1.00
2022-11-26T01:58:43.064Z,0.77
2022-11-26T02:01:09.951Z,0.70
2022-11-26T02:03:50.073Z,0.70
2022-11-26T02:06:19.273Z,0.50
2022-11-26T02:08:45.702Z,0.40
2022-11-26T02:11:16.968Z,0.40
2022-11-26T02:13:43.827Z,0.30
2022-11-26T02:16:14.950Z,0.30
2022-11-26T02:18:44.178Z,0.20
2022-11-26T02:21:14.933Z,0.30
2022-11-26T02:23:50.653Z,0.60
2022-11-26T02:26:29.035Z,0.70
2022-11-26T02:28:55.459Z,0.40
2022-11-26T02:31:37.336Z,0.40
2022-11-26T02:34:13.317Z,0.43
2022-11-26T02:36:42.711Z,0.30
2022-11-26T02:39:19.419Z,0.38
2022-11-26T02:41:47.982Z,0.40
2022-11-26T02:44:15.885Z,0.70
2022-11-26T02:46:43.169Z,0.50
2022-11-26T02:49:10.643Z,0.50
2022-11-26T02:51:37.325Z,0.50
2022-11-26T02:54:05.738Z,0.30
2022-11-26T02:56:32.141Z,0.40
2022-11-26T02:58:59.560Z,0.30
2022-11-26T03:01:31.842Z,0.20
2022-11-26T03:04:01.674Z,0.20
2022-11-26T03:06:30.262Z,0.32
2022-11-26T03:08:56.855Z,0.50
2022-11-26T03:11:23.349Z,0.30
2022-11-26T03:13:49.917Z,0.40
2022-11-26T03:16:16.881Z,0.30
2022-11-26T03:18:43.318Z,0.40
2022-11-26T03:21:09.704Z,0.30
2022-11-26T03:23:36.126Z,0.57
2022-11-26T03:26:02.482Z,0.55
2022-11-26T03:28:28.906Z,0.45
2022-11-26T03:30:55.360Z,0.43
2022-11-26T03:33:21.862Z,0.70
2022-11-26T03:35:48.973Z,0.90
2022-11-26T03:38:16.225Z,1.48
2022-11-26T03:40:42.596Z,1.08
2022-11-26T03:43:09.030Z,1.10
2022-11-26T03:45:35.607Z,0.90
2022-11-26T03:48:02.017Z,1.25
2022-11-26T03:50:28.414Z,1.23
2022-11-26T03:52:54.874Z,1.30
2022-11-26T03:55:21.278Z,1.00
2022-11-26T03:57:47.631Z,1.10
2022-11-26T04:00:14.291Z,1.10
2022-11-26T04:02:40.640Z,0.90
2022-11-26T04:05:07.234Z,1.13
2022-11-26T04:07:33.737Z,1.08
2022-11-26T04:10:00.136Z,0.80
2022-11-26T04:12:26.545Z,1.02
2022-11-26T04:14:53.069Z,2.08
2022-11-26T04:17:19.501Z,1.70
2022-11-26T04:19:45.843Z,1.67
2022-11-26T04:22:12.350Z,2.20
2022-11-26T04:24:38.790Z,1.42
2022-11-26T04:27:05.248Z,1.30
2022-11-26T04:29:31.617Z,1.20
2022-11-26T04:31:58.032Z,0.80
2022-11-26T04:34:24.435Z,0.60
2022-11-26T04:36:50.927Z,0.70
2022-11-26T04:39:17.293Z,0.40
2022-11-26T04:41:43.740Z,0.30
2022-11-26T04:44:10.158Z,0.50
2022-11-26T04:46:36.577Z,0.60
2022-11-26T04:49:03.058Z,0.60
2022-11-26T04:51:29.658Z,0.57
2022-11-26T04:53:56.541Z,0.63
2022-11-26T04:56:24.068Z,0.60
2022-11-26T04:58:50.610Z,0.40
2022-11-26T05:01:17.016Z,0.30
2022-11-26T05:03:43.482Z,0.30
2022-11-26T05:06:10.852Z,0.20
2022-11-26T05:08:37.191Z,0.32
2022-11-26T05:11:03.624Z,0.30
2022-11-26T05:13:30.051Z,0.47
2022-11-26T05:15:56.395Z,0.60
2022-11-26T05:18:22.790Z,0.50
2022-11-26T05:20:49.229Z,0.40
2022-11-26T05:23:15.552Z,0.70
2022-11-26T05:25:41.899Z,0.50
2022-11-26T05:28:08.477Z,0.60
2022-11-26T05:30:35.014Z,0.60
2022-11-26T05:33:01.409Z,0.60
2022-11-26T05:35:27.927Z,0.60
2022-11-26T05:37:54.247Z,0.50
2022-11-26T05:40:20.661Z,0.40
2022-11-26T05:42:47.104Z,0.45
2022-11-26T05:45:13.457Z,0.50
2022-11-26T05:47:39.807Z,0.20
2022-11-26T05:50:06.537Z,0.20
2022-11-26T05:52:32.964Z,0.20
2022-11-26T05:54:59.376Z,0.20
2022-11-26T05:57:25.751Z,0.20
2022-11-26T05:59:52.131Z,0.40
2022-11-26T06:02:18.822Z,0.30
2022-11-26T06:04:45.386Z,0.60
2022-11-26T06:07:11.840Z,0.40
2022-11-26T06:09:38.431Z,0.40
2022-11-26T06:12:05.321Z,0.60
2022-11-26T06:14:31.790Z,0.90
2022-11-26T06:16:58.272Z,0.70
2022-11-26T06:19:24.775Z,1.15
2022-11-26T06:21:51.191Z,0.90
2022-11-26T06:24:17.526Z,0.85
2022-11-26T06:26:43.977Z,1.10
2022-11-26T06:29:10.397Z,0.73
2022-11-26T06:31:36.780Z,0.88
2022-11-26T06:34:03.277Z,1.08
2022-11-26T06:36:29.633Z,0.90
2022-11-26T06:38:56.021Z,0.85
2022-11-26T06:41:22.526Z,0.60
2022-11-26T06:43:48.833Z,0.70
2022-11-26T06:46:15.244Z,1.52
2022-11-26T06:48:41.857Z,1.55
2022-11-26T06:51:12.101Z,2.22
2022-11-26T06:53:38.699Z,1.90
2022-11-26T06:56:07.541Z,1.23
2022-11-26T06:58:33.912Z,1.00
2022-11-26T07:01:00.302Z,0.68
2022-11-26T07:03:31.910Z,0.60
2022-11-26T07:05:59.475Z,0.40
2022-11-26T07:08:25.756Z,0.35
2022-11-26T07:10:52.076Z,0.70
2022-11-26T07:13:18.449Z,1.58
2022-11-26T07:15:45.170Z,1.30
2022-11-26T07:18:11.550Z,1.70
2022-11-26T07:20:37.910Z,1.15
2022-11-26T07:23:04.657Z,1.55
2022-11-26T07:25:31.255Z,0.82
2022-11-26T07:27:58.216Z,1.20
2022-11-26T07:30:24.608Z,1.10
2022-11-26T07:32:51.089Z,2.50
2022-11-26T07:35:17.548Z,2.10
2022-11-26T07:37:43.887Z,1.30
2022-11-26T07:40:10.488Z,1.40
2022-11-26T07:42:36.862Z,1.58
2022-11-26T07:45:04.614Z,3.10
2022-11-26T07:47:31.065Z,5.20
2022-11-26T07:49:57.400Z,12.93
2022-11-26T07:52:23.940Z,2.53
2022-11-26T07:54:50.252Z,1.40
2022-11-26T07:57:16.726Z,1.88
2022-11-26T07:59:43.030Z,0.82
2022-11-26T08:02:12.923Z,0.70
2022-11-26T08:04:39.508Z,0.50
2022-11-26T08:07:05.961Z,0.68
2022-11-26T08:09:32.797Z,1.15
2022-11-26T08:11:59.166Z,0.60
2022-11-26T08:14:25.513Z,1.38
2022-11-26T08:16:52.013Z,1.33
2022-11-26T08:19:18.581Z,1.23
2022-11-26T08:21:44.888Z,1.05
2022-11-26T08:24:13.864Z,2.20
2022-11-26T08:26:44.189Z,3.28
2022-11-26T08:29:11.292Z,2.38
2022-11-26T08:31:45.219Z,3.65
2022-11-26T08:34:14.057Z,3.70
2022-11-26T08:36:40.474Z,3.30
2022-11-26T08:39:06.898Z,3.15
2022-11-26T08:41:33.223Z,3.05
2022-11-26T08:44:07.987Z,3.30
2022-11-26T08:46:36.311Z,2.97
2022-11-26T08:49:02.809Z,2.63
2022-11-26T08:51:29.202Z,2.85
2022-11-26T08:53:55.651Z,2.30
2022-11-26T08:56:22.020Z,2.58
2022-11-26T08:58:49.161Z,2.47
2022-11-26T09:01:17.150Z,2.05
2022-11-26T09:03:44.013Z,4.38
2022-11-26T09:06:10.574Z,5.97
2022-11-26T09:08:56.120Z,2.42
2022-11-26T09:11:23.155Z,4.05
2022-11-26T09:13:49.550Z,2.60
2022-11-26T09:16:16.037Z,3.47
2022-11-26T09:18:42.474Z,4.57
2022-11-26T09:21:08.810Z,2.80
2022-11-26T09:23:35.381Z,3.33
2022-11-26T09:26:01.693Z,3.95
2022-11-26T09:28:28.648Z,3.67
2022-11-26T09:30:58.368Z,4.30
2022-11-26T09:33:25.212Z,4.43
2022-11-26T09:35:51.708Z,7.70
2022-11-26T09:38:18.077Z,3.90
2022-11-26T09:40:50.139Z,5.05
2022-11-26T09:45:45.980Z,4.03
2022-11-26T09:48:17.763Z,4.43
2022-11-26T09:50:45.724Z,4.30
2022-11-26T09:53:21.185Z,4.88
2022-11-26T09:55:51.983Z,5.10
2022-11-26T09:58:26.676Z,3.78
2022-11-26T10:00:54.596Z,2.80
2022-11-26T10:03:29.674Z,2.65
2022-11-26T10:05:58.943Z,2.67
2022-11-26T10:08:34.524Z,2.45
2022-11-26T10:11:13.132Z,3.47
2022-11-26T10:13:51.865Z,3.30
2022-11-26T10:16:18.202Z,3.20
2022-11-26T10:18:58.774Z,2.28
2022-11-26T10:21:44.431Z,3.78
2022-11-26T10:24:27.132Z,2.60
2022-11-26T10:26:54.223Z,3.10
2022-11-26T10:29:46.848Z,3.83
2022-11-26T10:32:21.091Z,3.28
2022-11-26T10:34:47.460Z,3.00
2022-11-26T10:37:13.900Z,2.75
2022-11-26T10:39:40.757Z,4.00
2022-11-26T10:42:13.961Z,2.90
2022-11-26T10:44:41.729Z,2.50
2022-11-26T10:47:23.720Z,2.13
2022-11-26T10:49:50.854Z,3.33
2022-11-26T10:52:23.001Z,2.70
2022-11-26T10:55:07.628Z,3.03
2022-11-26T10:57:36.708Z,2.67
2022-11-26T11:00:04.286Z,3.25
2022-11-26T11:02:30.725Z,2.47
2022-11-26T11:04:58.977Z,3.00
2022-11-26T11:07:28.180Z,3.10
2022-11-26T11:10:10.041Z,2.90
2022-11-26T11:12:37.215Z,3.40
2022-11-26T11:15:20.218Z,2.67
2022-11-26T11:17:53.154Z,2.10
2022-11-26T11:20:24.824Z,2.30
2022-11-26T11:22:57.594Z,2.53
2022-11-26T11:25:25.738Z,2.10
2022-11-26T11:27:53.833Z,2.30
2022-11-26T11:30:31.130Z,2.17
2022-11-26T11:33:08.610Z,2.15
2022-11-26T11:35:35.189Z,2.00
2022-11-26T11:38:01.568Z,1.40
2022-11-26T11:40:30.359Z,1.20
2022-11-26T11:43:04.032Z,2.10
2022-11-26T11:45:37.310Z,1.25
2022-11-26T11:48:06.816Z,1.67
2022-11-26T11:50:36.112Z,1.13
2022-11-26T11:53:20.792Z,1.00
2022-11-26T11:55:51.058Z,1.50
2022-11-26T11:58:26.777Z,1.25
2022-11-26T12:00:57.043Z,1.40
2022-11-26T12:03:26.532Z,1.92
2022-11-26T12:06:02.377Z,2.30
2022-11-26T12:08:31.766Z,2.05
2022-11-26T12:11:24.545Z,2.53
2022-11-26T12:13:53.299Z,2.35
2022-11-26T12:16:21.962Z,2.83
2022-11-26T12:18:53.778Z,1.95
2022-11-26T12:21:25.567Z,1.77
2022-11-26T12:23:55.095Z,1.33
2022-11-26T12:26:47.746Z,1.50
2022-11-26T12:29:19.944Z,1.10
2022-11-26T12:31:46.284Z,1.27
2022-11-26T12:34:22.083Z,1.40
2022-11-26T12:36:53.126Z,3.35
2022-11-26T12:39:29.438Z,1.35
2022-11-26T12:41:58.832Z,1.17
2022-11-26T12:44:30.617Z,1.63
2022-11-26T12:47:09.341Z,1.48
2022-11-26T12:49:51.045Z,1.40
2022-11-26T12:52:28.454Z,1.40
2022-11-26T12:55:04.062Z,1.20
2022-11-26T12:57:34.068Z,0.90
2022-11-26T13:00:11.070Z,1.15
2022-11-26T13:02:39.849Z,1.20
2022-11-26T13:05:06.683Z,1.20
2022-11-26T13:07:56.292Z,1.00
2022-11-26T13:10:39.118Z,1.33
2022-11-26T13:13:11.765Z,2.00
2022-11-26T13:15:42.135Z,1.92
2022-11-26T13:18:17.868Z,1.88
2022-11-26T13:20:44.310Z,1.92
2022-11-26T13:23:19.442Z,1.52
2022-11-26T13:25:57.351Z,1.40
2022-11-26T13:28:26.755Z,1.20
2022-11-26T13:31:11.922Z,1.77
2022-11-26T13:33:38.479Z,1.60
2022-11-26T13:36:17.165Z,1.90
2022-11-26T13:38:43.632Z,1.83
2022-11-26T13:41:42.446Z,1.80
2022-11-26T13:44:27.984Z,1.60
2022-11-26T13:46:54.370Z,3.65
2022-11-26T13:49:20.692Z,3.90
2022-11-26T13:51:58.353Z,3.00
2022-11-26T13:55:03.520Z,3.05
2022-11-26T13:57:41.437Z,2.30
2022-11-26T14:00:08.358Z,1.83
2022-11-26T14:02:36.775Z,2.20
2022-11-26T14:05:08.196Z,2.50
2022-11-26T14:07:34.720Z,1.90
2022-11-26T14:10:02.193Z,1.55
2022-11-26T14:12:47.195Z,1.50
2022-11-26T14:15:32.103Z,1.38
2022-11-26T14:17:59.656Z,1.80
2022-11-26T14:20:25.970Z,1.40
2022-11-26T14:22:52.264Z,0.70
2022-11-26T14:25:36.514Z,0.70
2022-11-26T14:28:05.292Z,0.80
2022-11-26T14:30:32.580Z,0.90
2022-11-26T14:33:08.311Z,1.02
2022-11-26T14:35:36.000Z,1.75
2022-11-26T14:38:04.087Z,2.75
2022-11-26T14:40:34.837Z,2.30
2022-11-26T14:43:16.139Z,1.83
2022-11-26T14:45:47.427Z,0.95
2022-11-26T14:48:24.658Z,1.00
2022-11-26T14:50:51.739Z,0.93
2022-11-26T14:53:19.913Z,0.80
2022-11-26T14:55:46.845Z,1.20
2022-11-26T14:58:19.141Z,1.70
2022-11-26T15:01:00.360Z,1.52
2022-11-26T15:03:26.978Z,1.70
2022-11-26T15:05:53.772Z,1.90
2022-11-26T15:08:20.383Z,1.80
2022-11-26T15:10:49.148Z,1.98
2022-11-26T15:13:27.611Z,3.58
2022-11-26T15:15:55.606Z,3.83
2022-11-26T15:18:25.299Z,5.07
2022-11-26T15:20:54.871Z,2.90
2022-11-26T15:23:27.989Z,1.77
2022-11-26T15:25:54.790Z,2.05
2022-11-26T15:28:22.228Z,2.00
2022-11-26T15:30:56.850Z,1.30
2022-11-26T15:33:23.629Z,1.40
2022-11-26T15:35:56.795Z,1.20
2022-11-26T15:38:24.688Z,1.25
2022-11-26T15:40:58.704Z,1.25
2022-11-26T15:43:30.314Z,1.60
2022-11-26T15:46:02.798Z,2.00
2022-11-26T15:48:51.578Z,1.90
2022-11-26T15:51:36.117Z,1.30
2022-11-26T15:54:04.276Z,1.02
2022-11-26T15:56:32.817Z,1.70
2022-11-26T15:59:00.614Z,3.83
2022-11-26T16:01:28.959Z,3.22
2022-11-26T16:03:56.131Z,2.53
2022-11-26T16:06:31.679Z,2.50
2022-11-26T16:09:14.761Z,2.28
2022-11-26T16:11:56.092Z,1.60
2022-11-26T16:14:28.638Z,1.55
2022-11-26T16:16:56.494Z,1.52
2022-11-26T16:19:27.364Z,1.20
2022-11-26T16:21:53.935Z,1.20
2022-11-26T16:24:26.422Z,1.65
2022-11-26T16:26:52.692Z,1.10
2022-11-26T16:29:19.096Z,1.08
2022-11-26T16:31:45.472Z,0.80
2022-11-26T16:34:11.791Z,0.70
2022-11-26T16:36:41.133Z,0.70
2022-11-26T16:39:09.555Z,0.60
2022-11-26T16:41:35.887Z,0.90
2022-11-26T16:44:02.376Z,1.00
2022-11-26T16:46:28.799Z,0.80
2022-11-26T16:48:55.297Z,1.25
2022-11-26T16:51:22.336Z,0.60
2022-11-26T16:53:48.878Z,0.60
2022-11-26T16:56:26.847Z,0.50
2022-11-26T16:58:53.769Z,0.30
2022-11-26T17:01:20.178Z,0.50
2022-11-26T17:03:46.605Z,0.30
2022-11-26T17:06:14.650Z,0.20
2022-11-26T17:08:45.052Z,0.50
2022-11-26T17:11:14.527Z,1.38
2022-11-26T17:13:40.900Z,1.30
2022-11-26T17:16:26.217Z,3.00
2022-11-26T17:18:53.096Z,2.63
2022-11-26T17:21:19.499Z,1.80
2022-11-26T17:23:45.879Z,1.80
2022-11-26T17:26:18.041Z,1.00
2022-11-26T17:28:44.519Z,1.30
2022-11-26T17:31:11.057Z,1.00
2022-11-26T17:33:37.501Z,0.95
2022-11-26T17:36:04.049Z,1.63
2022-11-26T17:38:30.433Z,1.23
2022-11-26T17:40:56.816Z,1.25
2022-11-26T17:43:23.137Z,2.00
2022-11-26T17:45:49.498Z,2.70
2022-11-26T17:48:15.834Z,3.95
2022-11-26T17:50:42.712Z,2.88
2022-11-26T17:53:09.131Z,4.28
2022-11-26T17:55:35.706Z,2.80
2022-11-26T17:58:02.305Z,1.77
2022-11-26T18:00:28.798Z,2.50
2022-11-26T18:02:55.322Z,2.40
2022-11-26T18:05:22.490Z,1.80
2022-11-26T18:07:50.049Z,1.98
2022-11-26T18:10:17.890Z,1.70
2022-11-26T18:12:44.823Z,1.80
2022-11-26T18:15:18.598Z,2.08
2022-11-26T18:17:48.169Z,1.75
2022-11-26T18:20:15.369Z,1.90
2022-11-26T18:22:42.355Z,1.42
2022-11-26T18:25:08.819Z,1.50
2022-11-26T18:27:35.691Z,1.35
2022-11-26T18:30:02.885Z,1.92
2022-11-26T18:32:29.292Z,2.10
2022-11-26T18:34:55.728Z,2.45
2022-11-26T18:37:22.161Z,2.95
2022-11-26T18:39:48.484Z,2.50
2022-11-26T18:42:35.932Z,2.80
2022-11-26T18:45:02.214Z,3.30
2022-11-26T18:47:28.577Z,2.28
2022-11-26T18:49:54.951Z,2.92
2022-11-26T18:52:21.340Z,5.90
2022-11-26T18:54:47.682Z,7.05
2022-11-26T18:57:14.057Z,6.10
2022-11-26T18:59:40.818Z,6.93
2022-11-26T19:02:08.694Z,4.68
2022-11-26T19:04:35.314Z,3.80
2022-11-26T19:07:02.347Z,3.03
2022-11-26T19:09:28.720Z,3.10
2022-11-26T19:11:55.175Z,3.95
2022-11-26T19:14:21.719Z,3.70
2022-11-26T19:16:49.073Z,3.30
2022-11-26T19:19:15.559Z,3.90
2022-11-26T19:21:42.213Z,3.28
2022-11-26T19:24:09.056Z,3.15
2022-11-26T19:26:36.332Z,2.90
2022-11-26T19:29:05.127Z,3.42
2022-11-26T19:31:35.294Z,3.28
2022-11-26T19:34:03.359Z,2.97
2022-11-26T19:36:30.050Z,3.30
2022-11-26T19:38:57.337Z,3.20
2022-11-26T19:41:25.770Z,3.13
2022-11-26T19:43:53.153Z,3.20
2022-11-26T19:46:20.548Z,2.83
2022-11-26T19:48:48.016Z,2.67
2022-11-26T19:51:15.166Z,2.25
2022-11-26T19:53:41.939Z,2.20
2022-11-26T19:56:14.423Z,2.10
2022-11-26T19:58:40.807Z,1.60
2022-11-26T20:01:08.371Z,2.13
2022-11-26T20:03:37.538Z,2.40
2022-11-26T20:06:06.175Z,2.25
2022-11-26T20:08:33.008Z,2.53
2022-11-26T20:11:06.730Z,2.03
2022-11-26T20:13:33.476Z,2.75
2022-11-26T20:15:59.793Z,2.92
2022-11-26T20:18:27.301Z,2.78
2022-11-26T20:21:00.243Z,2.50
2022-11-26T20:23:27.281Z,2.35
2022-11-26T20:25:54.396Z,2.47
2022-11-26T20:28:20.969Z,2.78
2022-11-26T20:30:47.473Z,3.38
2022-11-26T20:33:15.884Z,3.50
2022-11-26T20:35:42.976Z,3.33
2022-11-26T20:38:09.404Z,2.92
2022-11-26T20:40:35.804Z,2.80
2022-11-26T20:43:02.217Z,2.05
2022-11-26T20:45:28.679Z,2.85
2022-11-26T20:47:56.121Z,2.88
2022-11-26T20:50:22.674Z,2.47
2022-11-26T20:52:49.247Z,2.10
2022-11-26T20:55:16.909Z,2.00
2022-11-26T20:57:43.458Z,1.83
2022-11-26T21:00:10.552Z,2.38
2022-11-26T21:02:37.249Z,2.10
2022-11-26T21:05:03.710Z,2.58
2022-11-26T21:07:30.198Z,3.63
2022-11-26T21:09:58.205Z,2.60
2022-11-26T21:12:25.525Z,3.60
2022-11-26T21:14:52.013Z,2.97
2022-11-26T21:17:18.480Z,5.53
2022-11-26T21:19:45.105Z,3.50
2022-11-26T21:22:11.454Z,3.83
2022-11-26T21:24:38.443Z,3.85
2022-11-26T21:27:05.343Z,4.00
2022-11-26T21:29:32.905Z,4.25
2022-11-26T21:31:59.470Z,4.05
2022-11-26T21:34:25.933Z,4.10
2022-11-26T21:36:52.341Z,4.55
2022-11-26T21:39:18.784Z,4.57
2022-11-26T21:41:45.396Z,4.70
2022-11-26T21:44:11.990Z,5.95
2022-11-26T21:46:39.645Z,5.72
2022-11-26T21:49:07.005Z,5.20
2022-11-26T21:51:33.389Z,3.92
2022-11-26T21:53:59.789Z,4.10
2022-11-26T21:56:27.233Z,3.72
2022-11-26T21:58:56.762Z,4.85
2022-11-26T22:01:30.381Z,4.85
2022-11-26T22:03:59.163Z,4.68
2022-11-26T22:06:25.883Z,5.07
2022-11-26T22:08:52.464Z,5.20
2022-11-26T22:11:26.115Z,4.97
2022-11-26T22:13:52.755Z,5.35
2022-11-26T22:16:20.191Z,4.25
2022-11-26T22:18:47.148Z,4.18
2022-11-26T22:21:17.955Z,4.03
2022-11-26T22:23:44.702Z,4.97
2022-11-26T22:26:11.340Z,4.60
2022-11-26T22:28:40.727Z,4.32
2022-11-26T22:31:22.395Z,3.60
2022-11-26T22:33:49.228Z,4.47
2022-11-26T22:36:15.789Z,3.38
2022-11-26T22:38:42.367Z,2.80
2022-11-26T22:41:10.372Z,3.58
2022-11-26T22:43:37.089Z,4.18
2022-11-26T22:46:04.420Z,3.50
2022-11-26T22:48:30.802Z,3.58
2022-11-26T22:50:57.089Z,3.38
2022-11-26T22:53:23.495Z,3.80
2022-11-26T22:55:53.751Z,4.20
2022-11-26T22:58:20.067Z,3.65
2022-11-26T23:00:47.862Z,4.78
2022-11-26T23:03:14.416Z,4.07
2022-11-26T23:05:40.963Z,3.40
2022-11-26T23:08:07.371Z,4.15
2022-11-26T23:10:33.693Z,4.60
2022-11-26T23:12:59.978Z,4.47
2022-11-26T23:15:26.301Z,5.05
2022-11-26T23:17:52.581Z,5.10
2022-11-26T23:20:18.859Z,4.45
2022-11-26T23:22:45.211Z,5.40
2022-11-26T23:25:11.546Z,5.45
2022-11-26T23:27:37.883Z,3.83
2022-11-26T23:30:04.681Z,4.68
2022-11-26T23:32:32.580Z,5.70
2022-11-26T23:34:59.063Z,5.43
2022-11-26T23:37:25.483Z,6.03
2022-11-26T23:39:51.846Z,6.03
2022-11-26T23:42:18.338Z,5.82
2022-11-26T23:44:44.792Z,6.43
2022-11-26T23:47:11.247Z,6.72
2022-11-26T23:49:37.888Z,5.85
2022-11-26T23:52:04.726Z,5.50
2022-11-26T23:54:30.999Z,5.78
2022-11-26T23:56:57.338Z,6.45
2022-11-26T23:59:23.690Z,5.22
